Time;durP1;ratioP1;P1;durP2;ratioP2;P2;SDS_P1;SDS_P2;PMS_P1;PMS_P2;Temp;Humidity;BMP_temperature;BMP_pressure;BME280_temperature;BME280_humidity;BME280_pressure;Samples;Min_cycle;Max_cycle;Signal;HPM_P1;HPM_P2
2023/01/21 00:01:02;;;;;;;13.65;9.48;;;9.40;82.60;;;;;;6124455;23;20006;-81
2023/01/21 00:03:28;;;;;;;13.85;10.32;;;9.40;82.60;;;;;;6125103;23;19998;-81
2023/01/21 00:05:53;;;;;;;13.20;10.00;;;9.40;82.60;;;;;;6124363;23;20492;-81
2023/01/21 00:08:19;;;;;;;13.32;9.82;;;9.30;82.60;;;;;;6095964;23;20081;-81
2023/01/21 00:10:44;;;;;;;12.98;9.57;;;9.40;83.10;;;;;;6098784;23;20033;-81
2023/01/21 00:13:10;;;;;;;13.75;10.10;;;9.30;82.50;;;;;;6124734;23;20009;-81
2023/01/21 00:15:35;;;;;;;13.75;9.65;;;9.40;82.60;;;;;;6098313;23;20371;-81
2023/01/21 00:18:01;;;;;;;13.20;10.23;;;9.40;82.60;;;;;;6118095;23;20067;-81
2023/01/21 00:20:26;;;;;;;13.10;9.85;;;9.40;82.60;;;;;;6122306;23;20005;-81
2023/01/21 00:22:55;;;;;;;13.30;9.95;;;9.30;82.50;;;;;;6122799;23;20006;-81
2023/01/21 00:25:21;;;;;;;13.70;9.65;;;9.40;82.50;;;;;;6119967;23;20013;-81
2023/01/21 00:27:46;;;;;;;13.02;9.98;;;9.40;82.60;;;;;;6121783;23;20340;-81
2023/01/21 00:30:12;;;;;;;12.80;9.75;;;9.40;82.50;;;;;;6122180;23;20002;-81
2023/01/21 00:32:37;;;;;;;14.35;10.20;;;9.40;82.60;;;;;;6120910;23;20067;-81
2023/01/21 00:35:04;;;;;;;13.18;9.73;;;9.40;83.10;;;;;;6123097;23;20006;-81
2023/01/21 00:37:30;;;;;;;12.40;9.88;;;9.40;82.50;;;;;;6120172;23;20006;-81
2023/01/21 00:39:55;;;;;;;12.00;9.05;;;9.30;82.50;;;;;;6121572;23;20010;-82
2023/01/21 00:42:21;;;;;;;13.80;10.07;;;9.40;82.60;;;;;;6121670;23;20009;-81
2023/01/21 00:44:46;;;;;;;14.32;10.05;;;9.30;82.50;;;;;;6119841;23;20006;-81
2023/01/21 00:47:12;;;;;;;13.30;9.85;;;9.30;82.50;;;;;;6121041;23;19994;-80
2023/01/21 00:49:37;;;;;;;13.30;9.40;;;9.30;82.50;;;;;;6123433;23;20003;-81
2023/01/21 00:52:03;;;;;;;12.13;9.30;;;9.30;82.50;;;;;;6120353;23;20032;-81
2023/01/21 00:54:31;;;;;;;12.70;9.50;;;9.40;82.50;;;;;;6119906;23;20088;-81
2023/01/21 00:56:57;;;;;;;13.45;10.13;;;9.40;82.50;;;;;;6119255;23;20044;-81
2023/01/21 00:59:23;;;;;;;14.82;9.30;;;9.40;83.00;;;;;;6121493;23;20084;-81
2023/01/21 01:01:48;;;;;;;13.15;9.98;;;9.40;82.50;;;;;;6121658;23;20087;-81
2023/01/21 01:04:14;;;;;;;12.85;9.80;;;9.30;82.50;;;;;;6121391;23;20005;-81
2023/01/21 01:06:39;;;;;;;13.13;9.88;;;9.30;82.50;;;;;;6120995;23;20353;-82
2023/01/21 01:09:05;;;;;;;12.32;9.32;;;9.30;82.90;;;;;;6121050;23;20089;-81
2023/01/21 01:11:31;;;;;;;13.25;9.68;;;9.30;82.40;;;;;;6120955;23;20006;-81
2023/01/21 01:13:57;;;;;;;13.25;9.85;;;9.40;82.50;;;;;;6120362;23;20010;-81
2023/01/21 01:16:23;;;;;;;13.27;9.80;;;9.30;82.40;;;;;;6120623;23;20013;-81
2023/01/21 01:18:51;;;;;;;13.57;9.88;;;9.40;82.50;;;;;;6120920;23;20458;-81
2023/01/21 01:21:18;;;;;;;13.20;9.90;;;9.40;82.50;;;;;;6120818;23;20010;-81
2023/01/21 01:23:45;;;;;;;12.48;8.98;;;9.30;82.40;;;;;;6121250;23;20023;-80
2023/01/21 01:26:13;;;;;;;12.50;9.40;;;9.30;82.50;;;;;;6121100;23;20030;-81
2023/01/21 01:28:39;;;;;;;13.68;10.05;;;9.30;82.40;;;;;;6123202;23;20412;-81
2023/01/21 01:31:06;;;;;;;13.35;9.57;;;9.30;82.40;;;;;;6121003;23;20059;-81
2023/01/21 01:33:32;;;;;;;12.07;8.98;;;9.30;82.40;;;;;;6120837;23;20009;-81
2023/01/21 01:36:06;;;;;;;13.95;10.68;;;9.30;82.50;;;;;;6120438;23;20010;-81
2023/01/21 01:38:33;;;;;;;13.15;9.18;;;9.30;82.40;;;;;;6122419;23;20081;-81
2023/01/21 01:40:59;;;;;;;13.20;9.82;;;9.30;82.40;;;;;;6122183;23;20507;-81
2023/01/21 01:43:46;;;;;;;13.90;10.10;;;9.30;82.90;;;;;;6123721;23;20336;-82
2023/01/21 01:46:12;;;;;;;12.43;9.68;;;9.30;82.40;;;;;;6127413;23;20093;-81
2023/01/21 01:48:38;;;;;;;14.18;9.75;;;9.30;82.40;;;;;;6128356;23;20029;-82
2023/01/21 01:51:06;;;;;;;11.88;9.25;;;9.30;82.40;;;;;;6127940;23;20006;-81
2023/01/21 01:53:34;;;;;;;12.60;9.57;;;9.30;82.40;;;;;;6129302;23;20026;-82
2023/01/21 01:56:00;;;;;;;13.00;9.75;;;9.30;82.40;;;;;;6128602;23;20332;-82
2023/01/21 01:58:28;;;;;;;13.13;9.77;;;9.30;82.40;;;;;;6127374;23;20010;-82
2023/01/21 02:00:53;;;;;;;12.27;9.23;;;9.30;82.40;;;;;;6126965;23;20006;-81
2023/01/21 02:06:03;;;;;;;12.70;9.55;;;9.30;82.40;;;;;;6127227;23;20518;-82
2023/01/21 02:08:31;;;;;;;12.98;9.60;;;9.30;82.40;;;;;;6125394;23;20002;-81
2023/01/21 02:10:57;;;;;;;12.98;10.00;;;9.30;82.30;;;;;;6126033;23;20018;-81
2023/01/21 02:13:29;;;;;;;12.98;9.15;;;9.30;82.30;;;;;;6125508;23;20547;-81
2023/01/21 02:16:21;;;;;;;12.93;9.57;;;9.30;82.40;;;;;;6126293;23;20013;-81
2023/01/21 02:19:07;;;;;;;12.80;9.43;;;9.30;82.40;;;;;;6125948;23;20063;-81
2023/01/21 02:22:03;;;;;;;12.85;9.80;;;9.30;82.30;;;;;;6122805;23;20006;-81
2023/01/21 02:25:11;;;;;;;14.23;10.52;;;9.30;82.30;;;;;;6124193;23;20459;-81
2023/01/21 02:27:44;;;;;;;12.27;9.45;;;9.30;82.40;;;;;;6124794;23;20003;-81
2023/01/21 02:30:40;;;;;;;12.82;9.15;;;9.30;82.30;;;;;;6127382;23;20006;-81
2023/01/21 02:33:34;;;;;;;12.98;9.30;;;9.30;82.30;;;;;;6128279;23;20017;-81
2023/01/21 02:36:03;;;;;;;13.77;10.13;;;9.30;82.30;;;;;;6127705;23;20029;-82
2023/01/21 02:38:35;;;;;;;12.80;9.73;;;9.30;82.30;;;;;;6129402;23;20006;-83
2023/01/21 02:41:18;;;;;;;14.00;10.13;;;9.30;82.30;;;;;;6129659;23;20009;-82
2023/01/21 02:43:48;;;;;;;12.85;9.48;;;9.30;82.30;;;;;;6127686;23;20009;-82
2023/01/21 02:46:40;;;;;;;13.80;10.00;;;9.30;82.30;;;;;;6126870;23;20002;-83
2023/01/21 02:49:30;;;;;;;13.77;9.95;;;9.30;82.30;;;;;;6128543;23;20008;-82
2023/01/21 02:51:55;;;;;;;12.87;9.90;;;9.30;82.30;;;;;;6127350;23;20400;-82
2023/01/21 02:54:39;;;;;;;13.85;10.38;;;9.30;82.30;;;;;;6128486;23;20233;-82
2023/01/21 02:57:42;;;;;;;14.02;10.02;;;9.30;82.20;;;;;;6127522;23;20032;-81
2023/01/21 03:00:14;;;;;;;13.05;10.05;;;9.30;82.20;;;;;;6128272;23;20006;-82
2023/01/21 03:02:58;;;;;;;;;;;9.30;82.30;;;;;;6128133;23;20017;-81
2023/01/21 03:05:41;;;;;;;12.93;9.27;;;9.30;82.20;;;;;;6125193;23;19901;-81
2023/01/21 03:08:21;;;;;;;13.48;9.75;;;9.30;82.20;;;;;;6125310;23;20010;-81
2023/01/21 03:10:49;;;;;;;14.32;10.57;;;9.30;82.30;;;;;;6125515;23;20010;-81
2023/01/21 03:19:12;;;;;;;13.63;10.15;;;9.30;82.30;;;;;;6126498;23;20021;-82
2023/01/21 03:21:38;;;;;;;14.85;10.55;;;9.30;82.30;;;;;;6125472;23;20021;-81
2023/01/21 03:24:05;;;;;;;15.20;11.10;;;9.30;82.30;;;;;;6097788;23;20002;-81
2023/01/21 03:26:49;;;;;;;13.75;10.15;;;9.30;82.30;;;;;;6122435;23;20026;-81
2023/01/21 03:29:19;;;;;;;14.50;10.48;;;9.30;82.30;;;;;;6125822;23;20460;-82
2023/01/21 03:31:49;;;;;;;15.20;10.32;;;9.30;82.30;;;;;;6125529;23;20083;-81
2023/01/21 03:34:17;;;;;;;13.02;9.82;;;9.30;82.30;;;;;;6097289;23;20012;-81
2023/01/21 03:36:54;;;;;;;13.65;10.45;;;9.30;82.20;;;;;;6122283;23;20322;-81
2023/01/21 03:39:24;;;;;;;14.35;10.63;;;9.30;82.20;;;;;;6125304;23;20002;-81
2023/01/21 03:41:50;;;;;;;14.57;10.50;;;9.20;82.20;;;;;;6098863;23;20013;-81
2023/01/21 03:44:16;;;;;;;14.43;10.77;;;9.30;82.20;;;;;;6098586;23;20353;-81
2023/01/21 03:47:09;;;;;;;14.82;11.07;;;9.20;82.20;;;;;;6096585;23;20002;-81
2023/01/21 03:49:43;;;;;;;14.30;10.55;;;9.30;82.20;;;;;;6095687;23;20006;-81
2023/01/21 03:52:12;;;;;;;14.82;10.85;;;9.30;82.20;;;;;;6098724;23;20030;-81
2023/01/21 03:54:38;;;;;;;14.50;10.57;;;9.30;82.30;;;;;;6098224;23;20013;-81
2023/01/21 03:57:04;;;;;;;14.32;10.50;;;9.30;82.30;;;;;;6097930;23;20010;-81
2023/01/21 03:59:29;;;;;;;15.68;11.25;;;9.20;82.20;;;;;;6097629;23;20008;-82
2023/01/21 04:01:55;;;;;;;15.30;10.75;;;9.30;82.20;;;;;;6096552;23;20006;-81
2023/01/21 04:04:20;;;;;;;15.23;10.70;;;9.30;82.20;;;;;;6095777;23;20343;-81
2023/01/21 04:06:46;;;;;;;17.17;11.63;;;9.30;82.20;;;;;;6121233;23;20006;-81
2023/01/21 04:09:11;;;;;;;15.15;11.50;;;9.30;82.20;;;;;;6095830;23;20010;-81
2023/01/21 04:11:37;;;;;;;16.25;11.45;;;9.30;82.20;;;;;;6095789;23;20012;-81
2023/01/21 04:14:02;;;;;;;14.48;10.48;;;9.20;82.10;;;;;;6097199;23;20598;-81
2023/01/21 04:16:28;;;;;;;15.77;11.40;;;9.30;82.20;;;;;;6121706;23;20313;-81
2023/01/21 04:18:54;;;;;;;14.73;11.05;;;9.20;82.20;;;;;;6096511;23;20006;-81
2023/01/21 04:21:19;;;;;;;15.90;11.68;;;9.30;82.20;;;;;;6095607;23;20006;-81
2023/01/21 04:23:45;;;;;;;16.42;11.85;;;9.30;82.20;;;;;;6121448;23;19999;-80
2023/01/21 04:26:10;;;;;;;16.52;11.40;;;9.30;82.30;;;;;;6095246;23;20081;-82
2023/01/21 04:28:36;;;;;;;16.25;11.70;;;9.30;82.20;;;;;;6095615;23;20006;-82
2023/01/21 04:31:01;;;;;;;15.68;10.80;;;9.30;82.20;;;;;;6121405;23;20519;-81
2023/01/21 04:33:27;;;;;;;16.75;11.98;;;9.30;82.20;;;;;;6096283;23;20317;-81
2023/01/21 04:35:58;;;;;;;16.90;11.93;;;9.30;82.30;;;;;;6122809;23;20006;-82
2023/01/21 04:38:23;;;;;;;16.83;12.13;;;9.30;82.30;;;;;;6097744;23;20006;-81
2023/01/21 04:40:49;;;;;;;15.65;11.45;;;9.20;82.20;;;;;;6096315;23;20014;-82
2023/01/21 04:43:14;;;;;;;15.48;11.38;;;9.20;82.30;;;;;;6096646;23;20006;-81
2023/01/21 04:45:40;;;;;;;17.02;11.80;;;9.20;82.20;;;;;;6096250;23;20002;-81
2023/01/21 04:48:05;;;;;;;16.00;11.65;;;9.30;82.30;;;;;;6096431;23;20084;-81
2023/01/21 04:50:31;;;;;;;16.48;11.57;;;9.20;82.20;;;;;;6096549;23;20089;-81
2023/01/21 04:52:56;;;;;;;16.33;11.32;;;9.20;82.30;;;;;;6096734;23;20032;-81
2023/01/21 04:55:22;;;;;;;17.67;12.40;;;9.30;82.30;;;;;;6096897;23;20005;-81
2023/01/21 04:57:47;;;;;;;15.63;10.82;;;9.20;82.20;;;;;;6122554;23;20033;-81
2023/01/21 05:00:13;;;;;;;16.75;11.95;;;9.30;82.20;;;;;;6122670;23;21953;-81
2023/01/21 05:02:38;;;;;;;16.27;11.50;;;9.30;82.20;;;;;;6122417;23;20441;-81
2023/01/21 05:05:04;;;;;;;17.33;12.52;;;9.30;82.20;;;;;;6096357;23;19994;-78
2023/01/21 05:07:30;;;;;;;16.42;11.70;;;9.20;82.20;;;;;;6122349;23;20006;-82
2023/01/21 05:09:55;;;;;;;16.75;12.13;;;9.20;82.20;;;;;;6096441;23;20006;-81
2023/01/21 05:12:21;;;;;;;17.10;12.18;;;9.20;82.20;;;;;;6097172;23;20002;-81
2023/01/21 05:14:46;;;;;;;16.55;11.57;;;9.20;82.30;;;;;;6125468;23;20429;-81
2023/01/21 05:17:12;;;;;;;16.30;11.23;;;9.20;82.20;;;;;;6110919;23;20010;-78
2023/01/21 05:19:37;;;;;;;16.20;11.65;;;9.20;82.30;;;;;;6116489;23;20049;-79
2023/01/21 05:22:03;;;;;;;16.85;12.02;;;9.20;82.70;;;;;;6118398;23;20384;-79
2023/01/21 05:24:29;;;;;;;16.60;12.02;;;9.20;82.20;;;;;;6111537;23;20042;-79
2023/01/21 05:26:55;;;;;;;17.10;12.02;;;9.30;82.30;;;;;;6115388;23;20009;-80
2023/01/21 05:29:20;;;;;;;17.70;12.20;;;9.20;82.20;;;;;;6116875;23;20006;-77
2023/01/21 05:31:46;;;;;;;17.45;12.50;;;9.30;82.30;;;;;;6115326;23;20439;-82
2023/01/21 05:34:12;;;;;;;18.92;12.30;;;9.20;82.20;;;;;;6116445;23;20006;-79
2023/01/21 05:36:38;;;;;;;17.02;12.50;;;9.20;82.20;;;;;;6115894;23;20041;-78
2023/01/21 05:39:04;;;;;;;18.75;12.55;;;9.20;82.10;;;;;;6116956;23;20482;-79
2023/01/21 05:41:29;;;;;;;18.50;13.07;;;9.30;82.20;;;;;;6119925;23;20010;-80
2023/01/21 05:43:55;;;;;;;17.05;12.25;;;9.20;82.10;;;;;;6116419;23;20428;-79
2023/01/21 05:46:20;;;;;;;17.25;12.20;;;9.30;82.20;;;;;;6114963;23;20081;-79
2023/01/21 05:48:46;;;;;;;17.20;12.05;;;9.20;82.20;;;;;;6115894;23;20526;-78
2023/01/21 05:51:11;;;;;;;17.90;12.63;;;9.20;82.20;;;;;;6116728;23;20063;-82
2023/01/21 05:53:37;;;;;;;18.15;12.82;;;9.20;82.20;;;;;;6119677;23;20002;-78
2023/01/21 05:56:03;;;;;;;18.13;12.25;;;9.20;82.10;;;;;;6118604;23;20021;-79
2023/01/21 05:58:28;;;;;;;17.67;12.85;;;9.30;82.20;;;;;;6119137;23;20021;-82
2023/01/21 06:00:57;;;;;;;16.73;12.02;;;9.20;82.10;;;;;;6118021;23;20041;-81
2023/01/21 06:03:22;;;;;;;18.73;12.48;;;9.20;82.20;;;;;;6125481;23;20455;-80
2023/01/21 06:05:48;;;;;;;18.45;13.20;;;9.20;82.10;;;;;;6119169;23;20002;-80
2023/01/21 06:08:14;;;;;;;18.33;13.05;;;9.20;82.10;;;;;;6118208;23;20006;-81
2023/01/21 06:10:40;;;;;;;17.60;12.30;;;9.20;82.00;;;;;;6119993;23;20340;-80
2023/01/21 06:13:06;;;;;;;17.70;12.43;;;9.20;82.10;;;;;;6119690;23;20006;-81
2023/01/21 06:15:32;;;;;;;18.40;13.18;;;9.20;82.00;;;;;;6119058;23;20016;-81
2023/01/21 06:17:59;;;;;;;19.00;13.65;;;9.20;82.00;;;;;;6117577;23;20025;-80
2023/01/21 06:20:25;;;;;;;18.73;12.57;;;9.20;82.10;;;;;;6120861;23;20047;-81
2023/01/21 06:22:51;;;;;;;17.67;12.48;;;9.20;82.00;;;;;;6119293;23;20013;-80
2023/01/21 06:25:16;;;;;;;17.60;12.50;;;9.20;82.10;;;;;;6118206;23;20037;-80
2023/01/21 06:27:42;;;;;;;19.98;13.75;;;9.20;82.20;;;;;;6117876;23;20002;-82
2023/01/21 06:30:10;;;;;;;18.77;13.15;;;9.20;82.10;;;;;;6117870;23;20340;-78
2023/01/21 06:32:36;;;;;;;18.15;13.40;;;9.20;82.10;;;;;;6118269;23;20300;-82
2023/01/21 06:35:03;;;;;;;18.23;13.13;;;9.20;82.10;;;;;;6117715;23;20387;-77
2023/01/21 06:37:28;;;;;;;17.83;12.10;;;9.20;82.10;;;;;;6117010;23;20465;-85
2023/01/21 06:39:54;;;;;;;18.45;13.20;;;9.20;82.10;;;;;;6125580;23;19998;-79
2023/01/21 06:42:20;;;;;;;19.02;13.30;;;9.20;82.00;;;;;;6118645;23;20386;-79
2023/01/21 06:44:46;;;;;;;17.83;12.75;;;9.20;81.90;;;;;;6117654;23;20089;-80
2023/01/21 06:47:12;;;;;;;18.17;12.75;;;9.20;81.90;;;;;;6118421;23;20029;-78
2023/01/21 06:49:38;;;;;;;18.75;13.40;;;9.20;82.00;;;;;;6118351;23;20455;-80
2023/01/21 06:52:04;;;;;;;19.13;12.85;;;9.20;81.90;;;;;;6119472;23;20006;-80
2023/01/21 06:54:30;;;;;;;18.40;13.20;;;9.20;82.00;;;;;;6119764;23;20006;-81
2023/01/21 06:56:55;;;;;;;20.15;13.55;;;9.20;82.00;;;;;;6120043;23;20167;-84
2023/01/21 06:59:21;;;;;;;19.70;12.85;;;9.20;81.90;;;;;;6120767;23;20333;-81
2023/01/21 07:01:47;;;;;;;20.77;13.13;;;9.20;82.00;;;;;;6119542;23;20018;-80
2023/01/21 07:04:12;;;;;;;20.05;13.43;;;9.20;82.00;;;;;;6120016;23;20532;-79
2023/01/21 07:06:38;;;;;;;19.92;13.23;;;9.20;82.00;;;;;;6121916;23;20006;-81
2023/01/21 07:09:04;;;;;;;19.88;13.00;;;9.20;82.00;;;;;;6120409;23;20002;-82
2023/01/21 07:11:30;;;;;;;19.48;13.75;;;9.30;82.10;;;;;;6119665;23;20010;-82
2023/01/21 07:13:56;;;;;;;19.30;12.98;;;9.20;81.90;;;;;;6119939;23;20017;-81
2023/01/21 07:16:22;;;;;;;20.20;13.73;;;9.30;82.10;;;;;;6119280;23;20519;-82
2023/01/21 07:18:48;;;;;;;20.23;13.40;;;9.20;82.00;;;;;;6121882;23;20077;-79
2023/01/21 07:21:13;;;;;;;19.40;13.73;;;9.20;82.00;;;;;;6095034;23;20024;-81
2023/01/21 07:23:39;;;;;;;19.40;13.68;;;9.20;81.90;;;;;;6095811;23;20013;-81
2023/01/21 07:26:04;;;;;;;19.58;13.50;;;9.20;82.00;;;;;;6094498;23;20006;-80
2023/01/21 07:28:30;;;;;;;18.95;12.77;;;9.20;82.00;;;;;;6094810;23;20009;-81
2023/01/21 07:31:00;;;;;;;20.38;12.90;;;9.20;82.00;;;;;;6095298;23;20037;-81
2023/01/21 07:33:29;;;;;;;19.45;13.35;;;9.20;82.00;;;;;;6095060;23;20010;-79
2023/01/21 07:35:55;;;;;;;20.30;14.18;;;9.20;82.00;;;;;;6094131;23;20002;-80
2023/01/21 07:38:21;;;;;;;19.45;13.30;;;9.20;81.90;;;;;;6095227;23;20018;-84
2023/01/21 07:40:48;;;;;;;18.27;12.93;;;9.20;82.00;;;;;;6094946;23;20590;-80
2023/01/21 07:43:13;;;;;;;20.20;13.82;;;9.20;82.00;;;;;;6094512;23;20006;-81
2023/01/21 07:45:39;;;;;;;20.10;13.65;;;9.20;82.00;;;;;;6094326;23;20386;-80
2023/01/21 07:48:04;;;;;;;19.90;13.55;;;9.20;82.00;;;;;;6093762;23;20006;-80
2023/01/21 07:50:30;;;;;;;21.25;13.80;;;9.20;82.00;;;;;;6094609;23;20013;-80
2023/01/21 07:52:55;;;;;;;19.58;13.68;;;9.20;82.10;;;;;;6095129;23;20010;-81
2023/01/21 07:55:21;;;;;;;19.90;14.15;;;9.20;82.00;;;;;;6094962;23;20010;-80
2023/01/21 07:57:47;;;;;;;19.60;13.25;;;9.20;82.00;;;;;;6094253;23;20383;-81
2023/01/21 08:00:13;;;;;;;19.98;13.68;;;9.20;82.00;;;;;;6094951;23;20168;-80
2023/01/21 08:02:39;;;;;;;19.83;12.90;;;9.20;81.90;;;;;;6096826;23;20010;-81
2023/01/21 08:05:06;;;;;;;20.10;13.68;;;9.20;82.00;;;;;;6094587;23;20541;-80
2023/01/21 08:07:31;;;;;;;20.10;13.68;;;9.20;82.00;;;;;;6093662;23;20076;-80
2023/01/21 08:09:57;;;;;;;20.02;13.40;;;9.20;82.00;;;;;;6094088;23;20032;-82
2023/01/21 08:12:22;;;;;;;19.75;13.82;;;9.20;82.10;;;;;;6120325;23;20009;-80
2023/01/21 08:14:48;;;;;;;20.25;13.55;;;9.20;82.10;;;;;;6120770;23;20010;-81
2023/01/21 08:17:13;;;;;;;22.05;14.27;;;9.20;82.00;;;;;;6103365;23;20025;-80
2023/01/21 08:19:39;;;;;;;18.48;13.00;;;9.20;82.00;;;;;;6117990;23;20002;-81
2023/01/21 08:22:04;;;;;;;19.90;13.57;;;9.20;82.10;;;;;;6117274;23;20002;-79
2023/01/21 08:24:30;;;;;;;19.15;12.80;;;9.20;82.00;;;;;;6120182;23;20069;-80
2023/01/21 08:26:57;;;;;;;20.23;14.35;;;9.20;82.10;;;;;;6117703;23;20021;-80
2023/01/21 08:29:23;;;;;;;19.73;13.77;;;9.20;82.10;;;;;;6117932;23;20336;-80
2023/01/21 08:31:49;;;;;;;19.60;13.50;;;9.20;82.10;;;;;;6120778;23;20085;-79
2023/01/21 08:34:15;;;;;;;19.77;13.73;;;9.20;82.00;;;;;;6121098;23;20384;-80
2023/01/21 08:36:40;;;;;;;21.27;13.55;;;9.20;82.10;;;;;;6130769;23;20085;-81
2023/01/21 08:39:06;;;;;;;20.60;13.93;;;9.20;82.10;;;;;;6120966;23;20007;-81
2023/01/21 08:41:32;;;;;;;20.58;13.40;;;9.20;82.00;;;;;;6121943;23;20010;-80
2023/01/21 08:43:58;;;;;;;20.67;14.23;;;9.20;82.20;;;;;;6120660;23;20002;-83
2023/01/21 08:46:23;;;;;;;19.05;13.32;;;9.20;82.10;;;;;;6118617;23;20044;-81
2023/01/21 08:48:50;;;;;;;19.05;13.25;;;9.20;82.10;;;;;;6117204;23;20006;-80
2023/01/21 08:51:16;;;;;;;21.02;13.57;;;9.20;82.10;;;;;;6116449;23;20081;-80
2023/01/21 08:53:41;;;;;;;19.33;13.65;;;9.20;82.00;;;;;;6116122;23;20030;-78
2023/01/21 08:56:07;;;;;;;20.58;13.88;;;9.20;82.00;;;;;;6117903;23;20014;-81
2023/01/21 08:58:32;;;;;;;21.15;13.95;;;9.20;82.10;;;;;;6117926;23;20044;-79
2023/01/21 09:01:04;;;;;;;21.73;14.75;;;9.20;82.10;;;;;;6119998;23;20510;-79
2023/01/21 09:03:29;;;;;;;19.67;13.60;;;9.10;82.00;;;;;;6117071;23;20010;-79
2023/01/21 09:05:59;;;;;;;20.73;13.93;;;9.20;82.00;;;;;;6118871;23;20127;-78
2023/01/21 09:08:27;;;;;;;18.48;13.10;;;9.20;82.00;;;;;;6117438;23;20009;-80
2023/01/21 09:11:00;;;;;;;20.42;13.57;;;9.20;82.10;;;;;;6119362;23;20440;-80
2023/01/21 09:13:35;;;;;;;20.33;13.88;;;9.20;82.00;;;;;;6113594;23;20408;-81
2023/01/21 09:16:01;;;;;;;20.27;14.07;;;9.20;82.00;;;;;;6113260;23;20030;-81
2023/01/21 09:18:27;;;;;;;19.63;13.80;;;9.20;82.10;;;;;;6089168;23;20020;-81
2023/01/21 09:20:53;;;;;;;19.90;13.95;;;9.20;82.00;;;;;;6089863;23;20010;-79
2023/01/21 09:23:24;;;;;;;20.45;13.90;;;9.20;82.00;;;;;;6091081;23;20002;-80
2023/01/21 09:25:59;;;;;;;20.05;13.75;;;9.20;82.00;;;;;;6124128;23;20020;-80
2023/01/21 09:28:24;;;;;;;20.23;13.68;;;9.20;82.00;;;;;;6090176;23;20497;-80
2023/01/21 09:30:58;;;;;;;20.35;14.18;;;9.20;82.00;;;;;;6090555;23;20010;-80
2023/01/21 09:33:24;;;;;;;20.80;13.25;;;9.20;81.90;;;;;;6090414;23;20258;-80
2023/01/21 09:35:55;;;;;;;20.85;13.88;;;9.20;82.00;;;;;;6091798;23;20025;-82
2023/01/21 09:38:20;;;;;;;20.10;14.00;;;9.20;82.00;;;;;;6115417;23;20089;-80
2023/01/21 09:40:46;;;;;;;20.83;13.82;;;9.20;82.50;;;;;;6090571;23;20581;-80
2023/01/21 09:43:24;;;;;;;20.05;13.68;;;9.20;82.00;;;;;;6090233;23;20008;-81
2023/01/21 09:45:54;;;;;;;20.42;13.65;;;9.20;82.00;;;;;;6089797;23;20034;-80
2023/01/21 09:48:29;;;;;;;21.85;14.20;;;9.20;82.00;;;;;;6090447;23;20002;-80
2023/01/21 09:50:57;;;;;;;20.25;14.02;;;9.20;82.00;;;;;;6089847;23;20086;-79
2023/01/21 09:53:30;;;;;;;21.35;13.75;;;9.10;81.90;;;;;;6116349;23;20059;-81
2023/01/21 09:55:59;;;;;;;20.55;14.27;;;9.20;81.90;;;;;;6091937;23;20327;-82
2023/01/21 09:58:47;;;;;;;21.60;14.60;;;9.20;81.90;;;;;;6091826;23;20010;-81
2023/01/21 10:01:29;;;;;;;39.05;16.70;;;9.20;81.80;;;;;;6089424;23;20018;-80
2023/01/21 10:04:21;;;;;;;32.00;15.88;;;9.20;81.20;;;;;;6089379;23;20081;-78
2023/01/21 10:07:10;;;;;;;29.27;15.27;;;9.20;81.10;;;;;;6088197;23;20016;-80
2023/01/21 10:10:04;;;;;;;23.67;14.35;;;9.20;81.50;;;;;;6091067;23;20016;-78
2023/01/21 10:13:03;;;;;;;24.75;15.75;;;9.10;81.40;;;;;;6092621;23;20005;-79
2023/01/21 10:15:50;;;;;;;28.33;15.27;;;9.20;81.50;;;;;;6091033;23;20010;-75
2023/01/21 10:18:21;;;;;;;32.67;15.50;;;9.20;81.60;;;;;;6117492;23;20624;-79
2023/01/21 10:20:53;;;;;;;26.67;14.80;;;9.20;81.60;;;;;;6092527;23;20088;-80
2023/01/21 10:23:32;;;;;;;36.72;15.70;;;9.20;81.80;;;;;;6090348;23;20576;-79
2023/01/21 10:26:03;;;;;;;32.70;15.48;;;9.20;82.10;;;;;;6118238;23;20097;-78
2023/01/21 10:28:31;;;;;;;28.90;15.23;;;9.20;81.80;;;;;;6093120;23;20006;-78
2023/01/21 10:31:03;;;;;;;31.30;14.85;;;9.20;81.70;;;;;;6090479;23;20092;-77
2023/01/21 10:33:31;;;;;;;30.85;14.68;;;9.20;81.80;;;;;;6116984;23;20080;-79
2023/01/21 10:36:14;;;;;;;27.63;15.48;;;9.20;81.70;;;;;;6117610;23;20010;-79
2023/01/21 10:38:54;;;;;;;42.97;16.83;;;9.20;81.80;;;;;;6090761;23;20021;-77
2023/01/21 10:41:43;;;;;;;40.73;17.70;;;9.20;81.70;;;;;;6119500;23;20016;-79
2023/01/21 10:44:40;;;;;;;31.88;15.95;;;9.20;81.40;;;;;;6119141;23;20260;-79
2023/01/21 10:47:38;;;;;;;31.80;15.88;;;9.20;81.40;;;;;;6118227;23;20089;-79
2023/01/21 10:50:37;;;;;;;29.13;14.73;;;9.20;81.50;;;;;;6152732;23;20045;-79
2023/01/21 10:53:30;;;;;;;31.50;14.95;;;9.20;81.60;;;;;;6094807;23;20017;-78
2023/01/21 11:04:38;;;;;;;30.80;14.85;;;9.20;81.90;;;;;;6120063;23;20051;-80
2023/01/21 11:07:19;;;;;;;29.73;14.77;;;9.20;81.90;;;;;;6094093;23;20014;-80
2023/01/21 11:10:37;;;;;;;;;;;;;;;;;;;;;
2023/01/21 11:16:38;;;;;;;25.90;14.40;;;9.00;81.90;;;;;;6065100;23;20098;-78
2023/01/21 11:32:36;;;;;;;25.25;14.43;;;9.20;81.90;;;;;;6117209;23;20462;-77
2023/01/21 11:39:11;;;;;;;25.92;14.93;;;9.30;81.70;;;;;;6026797;23;20074;-77
2023/01/21 11:41:37;;;;;;;24.33;13.93;;;7.80;80.90;;;;;;6027307;23;20019;-76
2023/01/21 11:44:16;;;;;;;24.05;13.95;;;9.20;81.60;;;;;;6086049;23;20010;-75
2023/01/21 11:46:42;;;;;;;25.50;14.57;;;9.20;81.50;;;;;;6090130;23;20051;-76
2023/01/21 11:49:08;;;;;;;27.73;14.85;;;9.20;81.40;;;;;;6115780;23;20049;-77
2023/01/21 11:51:38;;;;;;;30.30;14.40;;;9.20;81.50;;;;;;6090907;23;20452;-77
2023/01/21 11:54:16;;;;;;;27.10;14.75;;;9.20;81.60;;;;;;6090971;23;20124;-80
2023/01/21 11:56:55;;;;;;;25.02;14.23;;;9.20;81.60;;;;;;6091174;23;20013;-78
2023/01/21 11:59:33;;;;;;;25.35;13.80;;;9.20;81.70;;;;;;6116991;23;20009;-77
2023/01/21 12:02:18;;;;;;;24.73;14.55;;;9.20;81.70;;;;;;6116716;23;20002;-77
2023/01/21 12:04:58;;;;;;;27.02;14.98;;;9.20;81.70;;;;;;6091272;23;20303;-78
2023/01/21 12:07:33;;;;;;;25.40;14.98;;;9.20;81.70;;;;;;6116783;23;20002;-77
2023/01/21 12:10:11;;;;;;;26.63;14.93;;;9.20;82.30;;;;;;6090357;23;20013;-75
2023/01/21 12:12:44;;;;;;;22.95;13.38;;;9.20;81.80;;;;;;6089715;23;20002;-78
2023/01/21 12:15:44;;;;;;;26.35;14.88;;;9.20;81.80;;;;;;6089815;23;20010;-77
2023/01/21 12:18:42;;;;;;;25.05;14.73;;;9.20;81.70;;;;;;6089091;23;20002;-80
2023/01/21 12:21:39;;;;;;;23.67;13.65;;;9.20;81.80;;;;;;6089060;23;20017;-78
2023/01/21 12:24:33;;;;;;;23.23;14.40;;;9.20;81.70;;;;;;6089328;23;20014;-78
2023/01/21 12:27:26;;;;;;;26.65;14.48;;;9.20;81.70;;;;;;6116157;23;20022;-78
2023/01/21 12:30:06;;;;;;;23.60;13.88;;;9.20;81.70;;;;;;6114888;23;20461;-78
2023/01/21 12:32:43;;;;;;;24.10;14.10;;;9.20;81.70;;;;;;6089227;23;20010;-78
2023/01/21 12:35:14;;;;;;;23.13;13.43;;;9.20;81.70;;;;;;6115130;23;20014;-79
2023/01/21 12:37:55;;;;;;;23.73;14.32;;;9.20;81.70;;;;;;6089467;23;20010;-78
2023/01/21 12:40:39;;;;;;;21.67;13.60;;;9.20;81.80;;;;;;6115291;23;20488;-77
2023/01/21 12:43:16;;;;;;;23.05;13.35;;;9.20;81.80;;;;;;6115236;23;20441;-79
2023/01/21 12:45:51;;;;;;;23.25;13.77;;;9.20;81.80;;;;;;6088105;23;20012;-79
2023/01/21 12:48:43;;;;;;;23.10;13.63;;;9.20;81.80;;;;;;6090558;23;20006;-78
2023/01/21 12:51:27;;;;;;;22.75;13.60;;;9.20;81.80;;;;;;6114626;23;20006;-78
2023/01/21 12:54:03;;;;;;;24.23;13.35;;;9.20;81.80;;;;;;6114541;23;20006;-76
2023/01/21 12:56:53;;;;;;;21.17;13.30;;;9.10;81.70;;;;;;6116437;23;20010;-78
2023/01/21 12:59:31;;;;;;;20.25;12.77;;;9.20;81.70;;;;;;6122961;23;20062;-76
2023/01/21 13:02:04;;;;;;;22.63;13.52;;;9.20;81.70;;;;;;6240184;22;20431;-76
2023/01/21 13:04:35;;;;;;;20.17;13.05;;;9.20;81.80;;;;;;6238918;23;20026;-76
2023/01/21 13:07:22;;;;;;;21.23;12.40;;;9.20;81.80;;;;;;6240902;22;20035;-76
2023/01/21 13:10:23;;;;;;;21.25;13.05;;;9.20;81.90;;;;;;6239272;23;20012;-78
2023/01/21 13:12:57;;;;;;;22.50;13.05;;;9.20;81.70;;;;;;6238787;23;20004;-77
2023/01/21 13:15:34;;;;;;;29.23;13.80;;;9.20;81.80;;;;;;6239817;23;20083;-76
2023/01/21 13:18:13;;;;;;;20.48;12.75;;;9.20;81.80;;;;;;6241037;22;20004;-78
2023/01/21 13:20:43;;;;;;;21.48;12.88;;;9.20;81.80;;;;;;6239297;23;20016;-77
2023/01/21 13:23:39;;;;;;;23.10;13.80;;;9.20;82.30;;;;;;6239783;23;20083;-78
2023/01/21 13:26:31;;;;;;;21.88;13.00;;;9.20;81.80;;;;;;6240178;22;20323;-77
2023/01/21 13:29:31;;;;;;;21.48;13.02;;;9.20;81.80;;;;;;6237265;23;20358;-75
2023/01/21 13:32:13;;;;;;;19.50;12.20;;;9.20;81.90;;;;;;6240288;23;20725;-76
2023/01/21 13:34:57;;;;;;;;;;;9.20;81.80;;;;;;6240595;23;20009;-76
2023/01/21 13:37:45;;;;;;;17.60;11.23;;;9.20;81.80;;;;;;6241161;22;20290;-77
2023/01/21 13:40:17;;;;;;;19.10;12.10;;;9.20;81.90;;;;;;6240087;23;20090;-77